עמוד ראשי
METAR-TAF:

METAR-TAF

שדות תעופה :

Andahuaylas, פרו

קו רוחב: 13-43S, קו אורך: 073-21W, גובה: 3444מטר

תצפית מזג אוויר נוכחית

הדו"ח נערך לפני 5 שעות ו 5דקות, בשעה 19:00 UTC
רוח 11קשר מכיוון צפון-מזרח
טמפרטורת 19 צלסיוס
לחות 52%
לחץ 1033 hPa
ראות 10 קילומטר או יותר
ללא עננים שבסיסם נמוך מ 5000 רגל או קומולונימבוס

METAR: SPHY 121900Z 05011KT CAVOK 19/09 Q1033 RMK BIRD HAZARD RWY03/21 PP000

זמן: 19:05 (00:05 UTC)

תחזית

הדו"ח נערך לפני 7 שעות ו 5דקות, בשעה 17:00 UTC
תחזית בתוקף מ 12 ב 18 UTC עד 13 ב 18 UTC
רוח 10קשר מכיוון צפון/צפון-מזרח
ראות 10 קילומטר או יותר
ללא עננים שבסיסם נמוך מ 5000 רגל או קומולונימבוס
יעשה מ
07 ב 22 UTC עד 07 ב 23 UTC
רוח 5קשר מכיוון צפון-מערב

TAF: SPHY 121700Z 1218/1318 02010KT CAVOK TX20/1219Z TNM04/1311Z BECMG 0722/0723 32005KT

תצפיות ותחזיות מזג אוויר לגבי יותר מ- 4,000 שדות תעופה ברחבי העולם. דוחות METAR ו- TAF.

התחנות הזמינות מסומנות בנקודות צהובות ואדומות על גבי המפה.

העבר את העכבר לנקודה הצבעונית על מנת לראות את שם התחנה.

לאחר מכן, לחץ כדי לראות את תוכן ואת תחזיות מזג האוויר.

כדי לשנות את המפה: לחץ על הכפתורים הירוקים עם הפלוס השחור כדי להתקרב; על הכפתור הירוק עם המקף כדי להתרחק; או בחיצים הירוקים למפות סמוכות.


METAR-TAF: